createdAt,value
2018-07-05T00:00:29.591Z,23.2
2018-07-05T00:01:19.413Z,23.1
2018-07-05T00:02:10.557Z,23.2
2018-07-05T00:03:00.280Z,23.1
2018-07-05T00:03:49.023Z,23.2
2018-07-05T00:04:40.218Z,23.1
2018-07-05T00:05:29.492Z,23.2
2018-07-05T00:06:20.275Z,23.2
2018-07-05T00:07:10.715Z,23.2
2018-07-05T00:08:00.161Z,23.1
2018-07-05T00:08:49.377Z,23.1
2018-07-05T00:09:39.997Z,23.1
2018-07-05T00:10:30.302Z,23.1
2018-07-05T00:11:20.767Z,23.1
2018-07-05T00:12:10.770Z,23.2
2018-07-05T00:13:01.385Z,23.2
2018-07-05T00:13:49.862Z,23.2
2018-07-05T00:14:40.178Z,23.1
2018-07-05T00:15:30.992Z,23.2
2018-07-05T00:16:21.090Z,23.2
2018-07-05T00:17:11.190Z,23.2
2018-07-05T00:18:01.240Z,23.2
2018-07-05T00:18:50.407Z,23.1
2018-07-05T00:19:41.345Z,23.1
2018-07-05T00:20:30.251Z,23.2
2018-07-05T00:21:21.448Z,23.2
2018-07-05T00:22:10.689Z,23.1
2018-07-05T00:23:01.617Z,23.2
2018-07-05T00:23:51.076Z,23.1
2018-07-05T00:24:41.729Z,23.1
2018-07-05T00:25:31.794Z,23.2
2018-07-05T00:26:22.119Z,23.1
2018-07-05T00:27:10.804Z,23.1
2018-07-05T00:28:01.099Z,23.2
2018-07-05T00:28:52.572Z,23.2
2018-07-05T00:29:42.121Z,23.1
2018-07-05T00:30:32.467Z,23.2
2018-07-05T00:31:22.236Z,23.2
2018-07-05T00:32:11.764Z,23.2
2018-07-05T00:33:02.328Z,23.2
2018-07-05T00:33:51.786Z,23.1
2018-07-05T00:34:42.991Z,23.2
2018-07-05T00:35:32.745Z,23.2
2018-07-05T00:36:22.528Z,23.2
2018-07-05T00:37:12.911Z,23.1
2018-07-05T00:38:02.608Z,23.1
2018-07-05T00:38:52.177Z,23.1
2018-07-05T00:39:42.467Z,23.2
2018-07-05T00:40:32.839Z,23.2
2018-07-05T00:41:22.323Z,23.1
2018-07-05T00:42:13.202Z,23.1
2018-07-05T00:43:03.023Z,23.2
2018-07-05T00:43:53.077Z,23.1
2018-07-05T00:44:43.403Z,23.1
2018-07-05T00:45:33.227Z,23.1
2018-07-05T00:46:23.010Z,23.2
2018-07-05T00:47:13.635Z,23.1
2018-07-05T00:48:03.752Z,23.1
2018-07-05T00:48:52.420Z,23.1
2018-07-05T00:49:43.585Z,23.2
2018-07-05T00:50:33.612Z,23.2
2018-07-05T00:51:23.609Z,23.1
2018-07-05T00:52:14.019Z,23.2
2018-07-05T00:53:04.093Z,23.2
2018-07-05T00:53:53.607Z,23.2
2018-07-05T00:54:43.122Z,23.2
2018-07-05T00:55:33.765Z,23.2
2018-07-05T00:56:24.355Z,23.2
2018-07-05T00:57:14.413Z,23.1
2018-07-05T00:58:04.496Z,23.1
2018-07-05T00:58:53.672Z,23.1
2018-07-05T00:59:44.329Z,23.1
2018-07-05T01:00:34.426Z,23.1
2018-07-05T01:01:23.932Z,23.2
2018-07-05T01:02:14.537Z,23.2
2018-07-05T01:03:03.994Z,23.2
2018-07-05T01:03:55.164Z,23.2
2018-07-05T01:04:44.476Z,23.1
2018-07-05T01:05:34.772Z,23.2
2018-07-05T01:06:24.864Z,23.1
2018-07-05T01:07:14.649Z,23.1
2018-07-05T01:08:05.285Z,23.2
2018-07-05T01:08:54.464Z,23.2
2018-07-05T01:09:45.159Z,23.2
2018-07-05T01:10:34.959Z,23.2
2018-07-05T01:11:25.241Z,23.2
2018-07-05T01:12:15.303Z,23.1
2018-07-05T01:13:05.411Z,23.1
2018-07-05T01:13:55.393Z,23.2
2018-07-05T01:14:45.534Z,23.1
2018-07-05T01:15:35.971Z,23.1
2018-07-05T01:16:25.883Z,23.1
2018-07-05T01:17:15.710Z,23.1
2018-07-05T01:18:05.529Z,23.1
2018-07-05T01:18:55.859Z,23.1
2018-07-05T01:19:45.043Z,23.2
2018-07-05T01:20:35.378Z,23.1
2018-07-05T01:21:26.396Z,23.1
2018-07-05T01:22:16.364Z,23.1
2018-07-05T01:23:06.243Z,23.1
2018-07-05T01:23:55.885Z,23.1
2018-07-05T01:24:46.513Z,23.1
2018-07-05T01:25:35.847Z,23.1
2018-07-05T01:26:26.962Z,23.1
2018-07-05T01:27:16.172Z,23.1
2018-07-05T01:28:06.555Z,23.1
2018-07-05T01:28:56.607Z,23.1
2018-07-05T01:29:46.943Z,23.1
2018-07-05T01:30:35.898Z,23.1
2018-07-05T01:31:26.519Z,23.1
2018-07-05T01:32:16.849Z,23.1
2018-07-05T01:33:07.194Z,23.1
2018-07-05T01:33:56.133Z,23.1
2018-07-05T01:34:46.247Z,23.1
2018-07-05T01:35:36.542Z,23.1
2018-07-05T01:36:27.506Z,23.2
2018-07-05T01:37:16.744Z,23.1
2018-07-05T01:38:07.339Z,23.1
2018-07-05T01:38:57.640Z,23.1
2018-07-05T01:39:47.144Z,23.2
2018-07-05T01:40:38.082Z,23.1
2018-07-05T01:41:28.273Z,23.1
2018-07-05T01:42:17.642Z,23.1
2018-07-05T01:43:07.732Z,23.1
2018-07-05T01:43:57.217Z,23.1
2018-07-05T01:44:47.578Z,23.1
2018-07-05T01:45:38.575Z,23.1
2018-07-05T01:46:28.556Z,23.1
2018-07-05T01:47:17.690Z,23.1
2018-07-05T01:48:08.446Z,23.1
2018-07-05T01:48:58.668Z,23.1
2018-07-05T01:49:47.709Z,23.1
2018-07-05T01:50:38.809Z,23.1
2018-07-05T01:51:28.325Z,23.1
2018-07-05T01:52:18.927Z,23.1
2018-07-05T01:53:08.529Z,23.1
2018-07-05T01:53:58.508Z,23.1
2018-07-05T01:54:48.894Z,23.1
2018-07-05T01:55:39.209Z,23.1
2018-07-05T01:56:29.035Z,23.1
2018-07-05T01:57:19.262Z,23.1
2018-07-05T01:58:09.481Z,23.1
2018-07-05T01:58:59.243Z,23.1
2018-07-05T01:59:49.282Z,23.1
2018-07-05T02:00:39.380Z,23.1
2018-07-05T02:01:29.116Z,23.1
2018-07-05T02:02:18.716Z,23.1
2018-07-05T02:03:08.721Z,23.1
2018-07-05T02:03:59.282Z,23.2
2018-07-05T02:04:49.099Z,23.1
2018-07-05T02:05:38.894Z,23.2
2018-07-05T02:06:29.986Z,23.1
2018-07-05T02:07:19.598Z,23.1
2018-07-05T02:08:09.710Z,23.1
2018-07-05T02:08:59.712Z,23.2
2018-07-05T02:09:50.211Z,23.1
2018-07-05T02:10:40.011Z,23.1
2018-07-05T02:11:30.442Z,23.1
2018-07-05T02:12:20.683Z,23.1
2018-07-05T02:13:09.580Z,23.1
2018-07-05T02:14:00.791Z,23.1
2018-07-05T02:14:49.157Z,23.1
2018-07-05T02:15:40.909Z,23.1
2018-07-05T02:16:30.969Z,23.1
2018-07-05T02:17:19.338Z,23.1
2018-07-05T02:18:11.097Z,23.1
2018-07-05T02:19:01.157Z,23.1
2018-07-05T02:19:50.873Z,23.1
2018-07-05T02:20:40.937Z,23.1
2018-07-05T02:21:31.301Z,23.1
2018-07-05T02:22:20.782Z,23.1
2018-07-05T02:23:11.329Z,23.1
2018-07-05T02:24:01.122Z,23.1
2018-07-05T02:24:51.422Z,23.1
2018-07-05T02:25:41.517Z,23.1
2018-07-05T02:26:31.018Z,23.1
2018-07-05T02:27:21.724Z,23.1
2018-07-05T02:28:11.469Z,23.1
2018-07-05T02:29:01.231Z,23.1
2018-07-05T02:29:51.273Z,23.1
2018-07-05T02:30:41.961Z,23.1
2018-07-05T02:31:31.763Z,23.1
2018-07-05T02:32:21.805Z,23.1
2018-07-05T02:33:11.616Z,23.1
2018-07-05T02:34:01.969Z,23.1
2018-07-05T02:34:52.311Z,23.1
2018-07-05T02:35:42.128Z,23.1
2018-07-05T02:36:32.498Z,23.1
2018-07-05T02:37:22.228Z,23.1
2018-07-05T02:38:12.207Z,23.1
2018-07-05T02:39:02.310Z,23.1
2018-07-05T02:39:52.678Z,23.1
2018-07-05T02:40:42.235Z,23.1
2018-07-05T02:41:32.287Z,23.2
2018-07-05T02:42:22.376Z,23.1
2018-07-05T02:43:12.240Z,23.1
2018-07-05T02:44:02.228Z,23.1
2018-07-05T02:44:52.774Z,23.1
2018-07-05T02:45:42.565Z,23.1
2018-07-05T02:46:32.708Z,23.1
2018-07-05T02:47:23.312Z,23.1
2018-07-05T02:48:13.103Z,23.1
2018-07-05T02:49:02.290Z,23.1
2018-07-05T02:49:53.412Z,23.2
2018-07-05T02:50:42.922Z,23.1
2018-07-05T02:51:33.357Z,23.1
2018-07-05T02:52:23.113Z,23.1
2018-07-05T02:53:13.665Z,23.1
2018-07-05T02:54:03.548Z,23.1
2018-07-05T02:54:53.818Z,23.1
2018-07-05T02:55:43.921Z,23.1
2018-07-05T02:56:33.141Z,23.2
2018-07-05T02:57:23.484Z,23.1
2018-07-05T02:58:13.856Z,23.1
2018-07-05T02:59:03.913Z,23.1
2018-07-05T02:59:53.425Z,23.1
2018-07-05T03:00:43.865Z,23.1
2018-07-05T03:01:33.869Z,23.1
2018-07-05T03:02:23.693Z,23.1
2018-07-05T03:03:14.083Z,23.1
2018-07-05T03:04:04.355Z,23.1
2018-07-05T03:04:53.848Z,23.1
2018-07-05T03:05:44.198Z,23.1
2018-07-05T03:06:33.957Z,23.1
2018-07-05T03:07:23.755Z,23.1
2018-07-05T03:08:14.088Z,23.1
2018-07-05T03:09:04.187Z,23.1
2018-07-05T03:09:54.538Z,23.1
2018-07-05T03:10:44.299Z,23.1
2018-07-05T03:11:35.224Z,23.1
2018-07-05T03:12:25.197Z,23.1
2018-07-05T03:13:14.467Z,23.1
2018-07-05T03:14:04.800Z,23.1
2018-07-05T03:14:54.574Z,23.1
2018-07-05T03:15:45.206Z,23.1
2018-07-05T03:16:35.573Z,23.1
2018-07-05T03:17:25.581Z,23.1
2018-07-05T03:18:15.499Z,23.1
2018-07-05T03:19:05.828Z,23.1
2018-07-05T03:19:55.820Z,23.1
2018-07-05T03:20:45.424Z,23.1
2018-07-05T03:21:35.648Z,23.1
2018-07-05T03:22:26.021Z,23.1
2018-07-05T03:23:15.640Z,23.1
2018-07-05T03:24:05.644Z,23.1
2018-07-05T03:24:56.038Z,23.1
2018-07-05T03:25:46.149Z,23.1
2018-07-05T03:26:35.254Z,23.1
2018-07-05T03:27:24.831Z,23.1
2018-07-05T03:28:15.936Z,23.1
2018-07-05T03:29:05.992Z,23.1
2018-07-05T03:29:56.046Z,23.1
2018-07-05T03:30:46.238Z,23.1
2018-07-05T03:31:35.657Z,23.1
2018-07-05T03:32:26.770Z,23.1
2018-07-05T03:33:16.549Z,23.1
2018-07-05T03:34:06.603Z,23.1
2018-07-05T03:34:56.158Z,23.1
2018-07-05T03:35:46.782Z,23.1
2018-07-05T03:36:37.095Z,23.1
2018-07-05T03:37:26.307Z,23.1
2018-07-05T03:38:16.693Z,23.1
2018-07-05T03:39:07.327Z,23.1
2018-07-05T03:39:55.672Z,23.1
2018-07-05T03:40:47.211Z,23.1
2018-07-05T03:41:36.692Z,23.1
2018-07-05T03:42:27.003Z,23.1
2018-07-05T03:43:17.351Z,23.1
2018-07-05T03:44:06.868Z,23.1
2018-07-05T03:44:57.473Z,23.1
2018-07-05T03:45:47.238Z,23.1
2018-07-05T03:46:37.068Z,23.1
2018-07-05T03:47:27.349Z,23.1
2018-07-05T03:48:17.395Z,23.1
2018-07-05T03:49:07.829Z,23.1
2018-07-05T03:49:57.584Z,23.1
2018-07-05T03:50:47.401Z,23.1
2018-07-05T03:51:37.639Z,23.1
2018-07-05T03:52:28.306Z,23.1
2018-07-05T03:53:18.126Z,23.1
2018-07-05T03:54:08.150Z,23.1
2018-07-05T03:54:58.154Z,23.1
2018-07-05T03:55:48.218Z,23.1
2018-07-05T03:56:37.774Z,23.1
2018-07-05T03:57:28.340Z,23.1
2018-07-05T03:58:18.685Z,23.1
2018-07-05T03:59:08.550Z,23.1
2018-07-05T03:59:58.857Z,23.1
2018-07-05T04:00:48.598Z,23.1
2018-07-05T04:01:38.715Z,23
2018-07-05T04:02:28.814Z,23
2018-07-05T04:03:18.537Z,23
2018-07-05T04:04:08.879Z,23.1
2018-07-05T04:04:58.711Z,23.1
2018-07-05T04:05:49.362Z,23
2018-07-05T04:06:39.162Z,23
2018-07-05T04:07:28.942Z,23.1
2018-07-05T04:08:19.910Z,23
2018-07-05T04:09:08.977Z,23.1
2018-07-05T04:09:59.379Z,23
2018-07-05T04:10:49.716Z,23
2018-07-05T04:11:38.324Z,23
2018-07-05T04:12:28.554Z,23
2018-07-05T04:13:18.691Z,23
2018-07-05T04:14:08.404Z,23
2018-07-05T04:14:58.332Z,23
2018-07-05T04:15:47.455Z,23
2018-07-05T04:16:38.145Z,23
2018-07-05T04:17:28.754Z,23
2018-07-05T04:18:18.271Z,23
2018-07-05T04:19:08.440Z,23
2018-07-05T04:19:57.748Z,23
2018-07-05T04:20:48.227Z,23
2018-07-05T04:21:38.323Z,23
2018-07-05T04:22:27.573Z,23
2018-07-05T04:23:18.791Z,23
2018-07-05T04:24:09.007Z,23
2018-07-05T04:24:58.864Z,23
2018-07-05T04:25:48.539Z,23
2018-07-05T04:26:39.690Z,23
2018-07-05T04:27:27.888Z,23
2018-07-05T04:28:18.737Z,23
2018-07-05T04:29:08.309Z,23
2018-07-05T04:29:58.586Z,23
2018-07-05T04:30:48.778Z,23
2018-07-05T04:31:38.843Z,23
2018-07-05T04:32:29.462Z,23
2018-07-05T04:33:20.366Z,23
2018-07-05T04:34:10.577Z,23
2018-07-05T04:34:59.207Z,23.1
2018-07-05T04:35:49.875Z,23
2018-07-05T04:36:39.880Z,23
2018-07-05T04:37:29.690Z,23
2018-07-05T04:38:19.510Z,23
2018-07-05T04:39:10.020Z,23
2018-07-05T04:39:59.083Z,23.1
2018-07-05T04:40:50.018Z,23
2018-07-05T04:41:39.851Z,23
2018-07-05T04:42:31.195Z,23
2018-07-05T04:43:19.972Z,23.1
2018-07-05T04:44:09.751Z,23.1
2018-07-05T04:45:01.098Z,23
2018-07-05T04:45:50.958Z,23
2018-07-05T04:46:40.725Z,23
2018-07-05T04:47:30.740Z,23.1
2018-07-05T04:48:20.445Z,23.1
2018-07-05T04:49:11.183Z,23
2018-07-05T04:50:01.109Z,23.1
2018-07-05T04:50:51.037Z,23.1
2018-07-05T04:51:40.390Z,23.1
2018-07-05T04:52:30.755Z,23.1
2018-07-05T04:53:22.024Z,23.1
2018-07-05T04:54:11.169Z,23
2018-07-05T04:55:01.217Z,23
2018-07-05T04:55:51.111Z,23.1
2018-07-05T04:56:42.178Z,23.1
2018-07-05T04:57:31.019Z,23.1
2018-07-05T04:58:20.882Z,23.1
2018-07-05T04:59:10.974Z,23.1
2018-07-05T05:00:02.323Z,23.1
2018-07-05T05:00:51.294Z,23.1
2018-07-05T05:01:42.271Z,23.1
2018-07-05T05:02:34.284Z,23.1
2018-07-05T05:03:23.875Z,23.1
2018-07-05T05:04:13.296Z,23.1
2018-07-05T05:05:02.918Z,23.1
2018-07-05T05:05:53.422Z,23.1
2018-07-05T05:06:43.469Z,23.1
2018-07-05T05:07:33.599Z,23.1
2018-07-05T05:08:23.418Z,23.1
2018-07-05T05:09:13.712Z,23
2018-07-05T05:10:03.128Z,23.1
2018-07-05T05:10:54.088Z,23.1
2018-07-05T05:11:43.895Z,23.1
2018-07-05T05:12:33.703Z,23.1
2018-07-05T05:13:23.979Z,23.1
2018-07-05T05:14:14.049Z,23.1
2018-07-05T05:15:05.550Z,23.1
2018-07-05T05:15:53.966Z,23.1
2018-07-05T05:16:44.560Z,23.1
2018-07-05T05:17:34.647Z,23.1
2018-07-05T05:18:24.639Z,23.1
2018-07-05T05:19:15.072Z,23.1
2018-07-05T05:20:04.550Z,23.1
2018-07-05T05:20:53.778Z,23.1
2018-07-05T05:21:44.235Z,23.1
2018-07-05T05:22:33.173Z,23.1
2018-07-05T05:23:23.563Z,23.1
2018-07-05T05:24:14.874Z,23.1
2018-07-05T05:25:03.145Z,23.1
2018-07-05T05:25:54.283Z,23.1
2018-07-05T05:26:44.817Z,23.1
2018-07-05T05:27:34.700Z,23.1
2018-07-05T05:28:24.655Z,23.1
2018-07-05T05:29:15.300Z,23.1
2018-07-05T05:30:06.286Z,23.1
2018-07-05T05:30:55.149Z,23.1
2018-07-05T05:31:45.165Z,23.1
2018-07-05T05:32:35.478Z,23.1
2018-07-05T05:33:25.376Z,23.1
2018-07-05T05:34:15.641Z,23.1
2018-07-05T05:35:05.159Z,23.1
2018-07-05T05:35:55.479Z,23.1
2018-07-05T05:36:46.127Z,23.1
2018-07-05T05:37:36.175Z,23.1
2018-07-05T05:38:25.760Z,23.1
2018-07-05T05:39:15.865Z,23.1
2018-07-05T05:40:06.107Z,23.1
2018-07-05T05:40:55.940Z,23.1
2018-07-05T05:41:45.740Z,23.1
2018-07-05T05:42:35.993Z,23.1
2018-07-05T05:43:26.950Z,23.1
2018-07-05T05:44:16.305Z,23.1
2018-07-05T05:45:06.564Z,23.1
2018-07-05T05:45:56.860Z,23.1
2018-07-05T05:46:46.592Z,23.1
2018-07-05T05:47:37.187Z,23.1
2018-07-05T05:48:27.071Z,23.1
2018-07-05T05:49:17.065Z,23.1
2018-07-05T05:50:06.942Z,23.1
2018-07-05T05:50:57.462Z,23.1
2018-07-05T05:51:46.716Z,23.1
2018-07-05T05:52:37.327Z,23.1
2018-07-05T05:53:27.384Z,23.1
2018-07-05T05:54:17.161Z,23.1
2018-07-05T05:55:07.729Z,23.1
2018-07-05T05:55:57.874Z,23.1
2018-07-05T05:56:47.644Z,23.1
2018-07-05T05:57:37.411Z,23.1
2018-07-05T05:58:27.756Z,23.1
2018-07-05T05:59:17.541Z,23.1
2018-07-05T06:00:07.313Z,23.2
2018-07-05T06:00:57.738Z,23.1
2018-07-05T06:01:48.530Z,23.1
2018-07-05T06:02:37.800Z,23.1
2018-07-05T06:03:26.778Z,23.1
2018-07-05T06:04:17.730Z,23.1
2018-07-05T06:05:07.753Z,23.1
2018-07-05T06:05:57.799Z,23.1
2018-07-05T06:06:48.176Z,23.1
2018-07-05T06:07:37.942Z,23.2
2018-07-05T06:08:28.588Z,23.1
2018-07-05T06:09:17.900Z,23.1
2018-07-05T06:10:08.908Z,23.1
2018-07-05T06:10:58.248Z,23.2
2018-07-05T06:11:48.546Z,23.1
2018-07-05T06:12:38.948Z,23.1
2018-07-05T06:13:28.650Z,23.1
2018-07-05T06:14:18.471Z,23.1
2018-07-05T06:15:08.790Z,23.2
2018-07-05T06:15:59.130Z,23.1
2018-07-05T06:16:49.445Z,23.2
2018-07-05T06:17:39.032Z,23.2
2018-07-05T06:18:28.848Z,23.1
2018-07-05T06:19:19.460Z,23.1
2018-07-05T06:20:09.455Z,23.1
2018-07-05T06:20:59.462Z,23.1
2018-07-05T06:21:49.575Z,23.1
2018-07-05T06:22:39.570Z,23.1
2018-07-05T06:23:29.642Z,23.2
2018-07-05T06:24:19.755Z,23.1
2018-07-05T06:25:09.868Z,23.1
2018-07-05T06:26:00.142Z,23.1
2018-07-05T06:26:49.644Z,23.1
2018-07-05T06:27:40.064Z,23.1
2018-07-05T06:28:29.796Z,23.1
2018-07-05T06:29:20.129Z,23.1
2018-07-05T06:30:09.094Z,23.1
2018-07-05T06:31:00.000Z,23.1
2018-07-05T06:31:50.472Z,23.1
2018-07-05T06:32:40.418Z,23.1
2018-07-05T06:33:30.192Z,23.1
2018-07-05T06:34:21.112Z,23.1
2018-07-05T06:35:11.069Z,23.1
2018-07-05T06:36:01.024Z,23.1
2018-07-05T06:36:50.578Z,23.1
2018-07-05T06:37:40.337Z,23.2
2018-07-05T06:38:30.982Z,23.1
2018-07-05T06:39:20.802Z,23.2
2018-07-05T06:40:10.799Z,23.2
2018-07-05T06:41:00.636Z,23.2
2018-07-05T06:41:50.849Z,23.1
2018-07-05T06:42:40.729Z,23.1
2018-07-05T06:43:31.384Z,23.1
2018-07-05T06:44:19.969Z,23.2
2018-07-05T06:45:11.192Z,23.2
2018-07-05T06:46:00.653Z,23.2
2018-07-05T06:46:51.409Z,23.2
2018-07-05T06:47:41.124Z,23.2
2018-07-05T06:48:30.940Z,23.2
2018-07-05T06:49:21.191Z,23.2
2018-07-05T06:50:10.848Z,23.2
2018-07-05T06:51:00.892Z,23.2
2018-07-05T06:51:50.947Z,23.2
2018-07-05T06:52:40.426Z,23.2
2018-07-05T06:53:31.370Z,23.2
2018-07-05T06:54:20.600Z,23.2
2018-07-05T06:55:11.938Z,23.2
2018-07-05T06:56:02.003Z,23.1
2018-07-05T06:56:52.886Z,23.2
2018-07-05T06:57:42.526Z,23.2
2018-07-05T06:58:32.444Z,23.2
2018-07-05T06:59:23.382Z,23.2
2018-07-05T07:00:11.803Z,23.1
2018-07-05T07:01:01.922Z,23.1
2018-07-05T07:01:52.717Z,23.1
2018-07-05T07:02:41.975Z,23.1
2018-07-05T07:03:31.428Z,23.1
2018-07-05T07:04:22.921Z,23.1
2018-07-05T07:05:12.635Z,23.1
2018-07-05T07:06:02.448Z,23.1
2018-07-05T07:06:52.811Z,23.1
2018-07-05T07:07:42.628Z,23.1
2018-07-05T07:08:33.157Z,23.1
2018-07-05T07:09:23.297Z,23.1
2018-07-05T07:10:13.359Z,23.1
2018-07-05T07:11:03.156Z,23.1
2018-07-05T07:11:53.692Z,23.1
2018-07-05T07:12:42.972Z,23.1
2018-07-05T07:13:33.273Z,23.1
2018-07-05T07:14:22.580Z,23.1
2018-07-05T07:15:12.944Z,23.1
2018-07-05T07:16:04.679Z,23.1
2018-07-05T07:16:53.891Z,23.1
2018-07-05T07:17:43.354Z,23.1
2018-07-05T07:18:33.431Z,23.1
2018-07-05T07:19:24.399Z,23.1
2018-07-05T07:20:13.878Z,23.1
2018-07-05T07:21:03.928Z,23.1
2018-07-05T07:21:54.251Z,23.1
2018-07-05T07:22:44.031Z,23.1
2018-07-05T07:23:34.363Z,23.1
2018-07-05T07:24:24.521Z,23.1
2018-07-05T07:25:14.224Z,23.1
2018-07-05T07:26:04.574Z,23.1
2018-07-05T07:26:55.007Z,23.1
2018-07-05T07:27:43.950Z,23.1
2018-07-05T07:28:34.533Z,23.1
2018-07-05T07:29:25.133Z,23.1
2018-07-05T07:30:14.354Z,23.1
2018-07-05T07:31:04.146Z,23.1
2018-07-05T07:31:57.180Z,23.1
2018-07-05T07:32:44.598Z,23.1
2018-07-05T07:33:34.679Z,23.1
2018-07-05T07:34:24.689Z,23.1
2018-07-05T07:35:15.418Z,23.1
2018-07-05T07:36:05.053Z,23.1
2018-07-05T07:36:55.469Z,23.1
2018-07-05T07:37:46.461Z,23.1
2018-07-05T07:38:35.868Z,23.1
2018-07-05T07:39:25.311Z,23.1
2018-07-05T07:40:15.188Z,23.1
2018-07-05T07:41:05.759Z,23.1
2018-07-05T07:41:56.061Z,23.1
2018-07-05T07:42:45.640Z,23.1
2018-07-05T07:43:35.200Z,23.1
2018-07-05T07:44:24.633Z,23.1
2018-07-05T07:45:14.752Z,23.1
2018-07-05T07:46:05.928Z,23.1
2018-07-05T07:46:55.882Z,23.1
2018-07-05T07:47:45.733Z,23.1
2018-07-05T07:48:36.343Z,23.1
2018-07-05T07:49:25.838Z,23.1
2018-07-05T07:50:16.539Z,23.1
2018-07-05T07:51:06.552Z,23.1
2018-07-05T07:51:56.900Z,23.1
2018-07-05T07:52:46.677Z,23.1
2018-07-05T07:53:36.185Z,23.1
2018-07-05T07:54:26.794Z,23.1
2018-07-05T07:55:16.377Z,23.1
2018-07-05T07:56:07.195Z,23.1
2018-07-05T07:56:56.738Z,23.1
2018-07-05T07:57:47.298Z,23.1
2018-07-05T07:58:36.872Z,23.1
2018-07-05T07:59:27.278Z,23.1
2018-07-05T08:00:16.140Z,23.1
2018-07-05T08:01:07.020Z,23.1
2018-07-05T08:01:57.392Z,23.1
2018-07-05T08:02:46.693Z,23.1
2018-07-05T08:03:37.762Z,23.1
2018-07-05T08:04:27.825Z,23.1
2018-07-05T08:05:17.526Z,23.1
2018-07-05T08:06:06.607Z,23.1
2018-07-05T08:06:57.806Z,23.1
2018-07-05T08:07:48.154Z,23.1
2018-07-05T08:08:37.910Z,23.1
2018-07-05T08:09:28.249Z,23.1
2018-07-05T08:10:17.807Z,23.1
2018-07-05T08:11:07.644Z,23.1
2018-07-05T08:11:57.068Z,23.1
2018-07-05T08:12:48.263Z,23.1
2018-07-05T08:13:38.333Z,23.1
2018-07-05T08:14:27.603Z,23.1
2018-07-05T08:15:17.505Z,23.1
2018-07-05T08:16:08.057Z,23.1
2018-07-05T08:16:58.340Z,23.1
2018-07-05T08:17:48.681Z,23.1
2018-07-05T08:18:38.703Z,23.1
2018-07-05T08:19:28.530Z,23.1
2018-07-05T08:20:18.558Z,23.1
2018-07-05T08:21:08.952Z,23.1
2018-07-05T08:21:58.413Z,23.1
2018-07-05T08:22:47.949Z,23.1
2018-07-05T08:23:38.551Z,23.2
2018-07-05T08:24:29.220Z,23.1
2018-07-05T08:25:19.017Z,23.1
2018-07-05T08:26:09.052Z,23.1
2018-07-05T08:26:59.152Z,23.1
2018-07-05T08:27:49.205Z,23.1
2018-07-05T08:28:38.649Z,23.2
2018-07-05T08:29:29.383Z,23.2
2018-07-05T08:30:19.405Z,23.2
2018-07-05T08:31:09.730Z,23.2
2018-07-05T08:31:59.795Z,23.2
2018-07-05T08:32:48.501Z,23.1
2018-07-05T08:33:39.115Z,23.2
2018-07-05T08:34:30.237Z,23.2
2018-07-05T08:35:19.783Z,23.2
2018-07-05T08:36:09.619Z,23.2
2018-07-05T08:36:59.302Z,23.2
2018-07-05T08:37:51.244Z,23.2
2018-07-05T08:38:39.782Z,23.2
2018-07-05T08:39:30.616Z,23.2
2018-07-05T08:40:19.642Z,23.2
2018-07-05T08:41:10.499Z,23.2
2018-07-05T08:42:00.564Z,23.1
2018-07-05T08:42:50.080Z,23.2
2018-07-05T08:43:40.654Z,23.2
2018-07-05T08:44:30.196Z,23.2
2018-07-05T08:45:20.596Z,23.2
2018-07-05T08:46:10.411Z,23.2
2018-07-05T08:47:01.000Z,23.2
2018-07-05T08:47:50.846Z,23.2
2018-07-05T08:48:40.857Z,23.2
2018-07-05T08:49:31.224Z,23.2
2018-07-05T08:50:20.641Z,23.2
2018-07-05T08:51:11.329Z,23.2
2018-07-05T08:52:00.522Z,23.2
2018-07-05T08:52:50.860Z,23.3
2018-07-05T08:53:40.934Z,23.3
2018-07-05T08:54:31.554Z,23.3
2018-07-05T08:55:21.116Z,23.3
2018-07-05T08:56:10.876Z,23.3
2018-07-05T08:57:01.744Z,23.4
2018-07-05T08:57:51.590Z,23.4
2018-07-05T08:58:41.144Z,23.4
2018-07-05T08:59:32.318Z,23.4
2018-07-05T09:00:21.746Z,23.4
2018-07-05T09:01:11.260Z,23.4
2018-07-05T09:02:01.919Z,23.4
2018-07-05T09:02:51.961Z,23.4
2018-07-05T09:03:42.069Z,23.4
2018-07-05T09:04:32.348Z,23.4
2018-07-05T09:05:23.512Z,23.5
2018-07-05T09:06:11.945Z,23.5
2018-07-05T09:07:01.495Z,23.5
2018-07-05T09:07:51.536Z,23.6
2018-07-05T09:08:42.103Z,23.5
2018-07-05T09:09:32.524Z,23.5
2018-07-05T09:10:22.978Z,23.5
2018-07-05T09:11:12.302Z,23.5
2018-07-05T09:12:03.254Z,23.4
2018-07-05T09:12:53.225Z,23.5
2018-07-05T09:13:42.794Z,23.4
2018-07-05T09:14:33.062Z,23.4
2018-07-05T09:15:23.213Z,23.4
2018-07-05T09:16:13.298Z,23.4
2018-07-05T09:17:02.565Z,23.4
2018-07-05T09:17:59.604Z,23.4
2018-07-05T09:18:43.751Z,23.4
2018-07-05T09:19:33.304Z,23.4
2018-07-05T09:20:23.410Z,23.4
2018-07-05T09:21:13.381Z,23.5
2018-07-05T09:22:03.989Z,23.5
2018-07-05T09:22:53.824Z,23.5
2018-07-05T09:23:44.730Z,23.4
2018-07-05T09:24:33.640Z,23.5
2018-07-05T09:25:23.227Z,23.4
2018-07-05T09:26:13.752Z,23.5
2018-07-05T09:27:03.819Z,23.4
2018-07-05T09:27:54.026Z,23.4
2018-07-05T09:28:44.033Z,23.4
2018-07-05T09:29:34.014Z,23.4
2018-07-05T09:30:24.394Z,23.5
2018-07-05T09:31:15.106Z,23.5
2018-07-05T09:32:03.991Z,23.5
2018-07-05T09:32:54.264Z,23.5
2018-07-05T09:33:42.521Z,23.5
2018-07-05T09:34:33.403Z,23.5
2018-07-05T09:35:24.825Z,23.5
2018-07-05T09:36:13.248Z,23.5
2018-07-05T09:37:04.676Z,23.5
2018-07-05T09:37:54.540Z,23.5
2018-07-05T09:38:43.946Z,23.5
2018-07-05T09:39:34.843Z,23.5
2018-07-05T09:40:24.995Z,23.5
2018-07-05T09:41:15.256Z,23.5
2018-07-05T09:42:05.091Z,23.5
2018-07-05T09:42:54.233Z,23.5
2018-07-05T09:43:45.151Z,23.5
2018-07-05T09:44:35.213Z,23.5
2018-07-05T09:45:25.546Z,23.5
2018-07-05T09:46:15.347Z,23.6
2018-07-05T09:47:07.616Z,23.6
2018-07-05T09:47:55.024Z,23.6
2018-07-05T09:48:44.553Z,23.6
2018-07-05T09:49:35.048Z,23.6
2018-07-05T09:50:24.954Z,23.6
2018-07-05T09:51:16.022Z,23.6
2018-07-05T09:52:06.101Z,23.6
2018-07-05T09:52:57.519Z,23.6
2018-07-05T09:53:45.383Z,23.6
2018-07-05T09:54:35.413Z,23.6
2018-07-05T09:55:26.085Z,23.6
2018-07-05T09:56:16.358Z,23.6
2018-07-05T09:57:06.228Z,23.6
2018-07-05T09:57:56.200Z,23.6
2018-07-05T09:58:46.570Z,23.6
2018-07-05T09:59:36.660Z,23.6
2018-07-05T10:00:27.006Z,23.6
2018-07-05T10:01:16.832Z,23.6
2018-07-05T10:02:05.819Z,23.6
2018-07-05T10:02:56.952Z,23.6
2018-07-05T10:03:48.949Z,23.6
2018-07-05T10:04:36.233Z,23.6
2018-07-05T10:05:26.899Z,23.6
2018-07-05T10:06:16.389Z,23.6
2018-07-05T10:07:07.293Z,23.7
2018-07-05T10:07:56.266Z,23.7
2018-07-05T10:08:46.414Z,23.7
2018-07-05T10:09:36.981Z,23.7
2018-07-05T10:10:26.959Z,23.7
2018-07-05T10:11:17.071Z,23.7
2018-07-05T10:12:07.683Z,23.7
2018-07-05T10:12:58.346Z,23.7
2018-07-05T10:13:51.398Z,23.7
2018-07-05T10:14:37.907Z,23.8
2018-07-05T10:15:27.663Z,23.8
2018-07-05T10:16:17.760Z,23.8
2018-07-05T10:17:08.413Z,23.8
2018-07-05T10:17:58.444Z,23.8
2018-07-05T10:18:48.442Z,23.8
2018-07-05T10:19:38.500Z,23.8
2018-07-05T10:20:28.323Z,23.8
2018-07-05T10:21:18.391Z,23.7
2018-07-05T10:22:07.867Z,23.8
2018-07-05T10:22:58.837Z,23.8
2018-07-05T10:23:48.590Z,23.8
2018-07-05T10:24:38.353Z,23.8
2018-07-05T10:25:28.989Z,23.8
2018-07-05T10:26:17.639Z,23.8
2018-07-05T10:27:09.545Z,23.8
2018-07-05T10:27:58.376Z,23.8
2018-07-05T10:28:48.677Z,23.8
2018-07-05T10:29:39.056Z,23.8
2018-07-05T10:30:28.594Z,23.7
2018-07-05T10:31:19.140Z,23.7
2018-07-05T10:32:08.982Z,23.7
2018-07-05T10:33:00.227Z,23.7
2018-07-05T10:33:49.100Z,23.7
2018-07-05T10:34:38.952Z,23.6
2018-07-05T10:35:28.656Z,23.7
2018-07-05T10:36:19.093Z,23.6
2018-07-05T10:37:09.651Z,23.7
2018-07-05T10:37:59.483Z,23.6
2018-07-05T10:38:49.829Z,23.6
2018-07-05T10:39:41.078Z,23.6
2018-07-05T10:40:30.192Z,23.6
2018-07-05T10:41:19.503Z,23.6
2018-07-05T10:42:09.237Z,23.6
2018-07-05T10:42:59.594Z,23.6
2018-07-05T10:43:49.606Z,23.6
2018-07-05T10:44:39.411Z,23.6
2018-07-05T10:45:30.074Z,23.6
2018-07-05T10:46:20.712Z,23.6
2018-07-05T10:47:10.459Z,23.6
2018-07-05T10:48:00.832Z,23.6
2018-07-05T10:48:50.022Z,23.6
2018-07-05T10:49:40.464Z,23.6
2018-07-05T10:50:30.184Z,23.6
2018-07-05T10:51:21.089Z,23.6
2018-07-05T10:52:10.568Z,23.6
2018-07-05T10:53:00.072Z,23.6
2018-07-05T10:53:50.695Z,23.6
2018-07-05T10:54:40.763Z,23.6
2018-07-05T10:55:29.814Z,23.6
2018-07-05T10:56:21.186Z,23.6
2018-07-05T10:57:10.950Z,23.6
2018-07-05T10:58:01.312Z,23.6
2018-07-05T10:58:51.624Z,23.6
2018-07-05T10:59:41.673Z,23.6
2018-07-05T11:00:30.932Z,23.6
2018-07-05T11:01:20.721Z,23.6
2018-07-05T11:02:11.050Z,23.6
2018-07-05T11:03:01.995Z,23.6
2018-07-05T11:03:51.714Z,23.6
2018-07-05T11:04:41.313Z,23.6
2018-07-05T11:05:31.618Z,23.6
2018-07-05T11:06:21.416Z,23.6
2018-07-05T11:07:11.894Z,23.6
2018-07-05T11:08:01.833Z,23.6
2018-07-05T11:08:51.889Z,23.6